KBRL/BRL METAR and TAF weather

Enter ICAO airport designator
Station Type Date Time Source
KBRL METAR 2020/04/07 03:53 UTC NOAA

KBRL 070353Z AUTO 15006KT 10SM SCT055 OVC070 16/12 A2986 RMK AO2 SLP111 T01610117


Station Type Date Time Source
KBRL Decoded METAR 2020/04/07 03:53 UTC NOAA

BURLINGTON REGIONAL AIRPORT, IA, United States (KBRL) 40-46N 91-08W 211M
Apr 06, 2020 - 11:53 PM EDT / 2020.04.07 0353 UTC
Wind: from the SSE (150 degrees) at 7 MPH (6 KT):0
Visibility: 10 mile(s):0
Sky conditions: overcast
Temperature: 61.0 F (16.1 C)
Dew Point: 53.1 F (11.7 C)
Relative Humidity: 75%
Pressure (altimeter): 29.86 in. Hg (1011 hPa)
ob: KBRL 070353Z AUTO 15006KT 10SM SCT055 OVC070 16/12 A2986 RMK AO2 SLP111 T01610117
cycle: 4

Station Type Date Time Source
KBRL TAF 2020/04/07 03:15 UTC NOAA

TAF
AMD KBRL 070313Z 0703/0724 17008KT P6SM OVC060
FM070600 21006KT P6SM BKN040
FM071600 24011G17KT P6SM SCT030

Example: see airport list